createdAt,value
2023-04-14T00:00:16.035Z,374.00
2023-04-14T00:01:16.084Z,372.00
2023-04-14T00:02:16.251Z,371.00
2023-04-14T00:03:16.430Z,373.00
2023-04-14T00:04:16.563Z,375.00
2023-04-14T00:05:16.418Z,373.00
2023-04-14T00:06:16.398Z,375.00
2023-04-14T00:07:16.458Z,376.00
2023-04-14T00:08:16.489Z,378.00
2023-04-14T00:09:16.567Z,374.00
2023-04-14T00:10:16.633Z,375.00
2023-04-14T00:11:16.678Z,375.00
2023-04-14T00:12:16.707Z,375.00
2023-04-14T00:13:16.801Z,377.00
2023-04-14T00:14:16.863Z,377.00
2023-04-14T00:15:16.908Z,377.00
2023-04-14T00:16:16.949Z,374.00
2023-04-14T00:17:17.103Z,373.00
2023-04-14T00:18:17.086Z,373.00
2023-04-14T00:19:17.093Z,373.00
2023-04-14T00:20:17.186Z,371.00
2023-04-14T00:21:17.231Z,369.00
2023-04-14T00:22:17.290Z,369.00
2023-04-14T00:23:17.353Z,370.00
2023-04-14T00:24:17.410Z,374.00
2023-04-14T00:25:17.473Z,376.00
2023-04-14T00:26:17.491Z,377.00
2023-04-14T00:27:17.569Z,376.00
2023-04-14T00:28:17.656Z,376.00
2023-04-14T00:29:17.693Z,372.00
2023-04-14T00:30:17.773Z,369.00
2023-04-14T00:31:17.965Z,368.00
2023-04-14T00:32:17.938Z,368.00
2023-04-14T00:33:17.934Z,370.00
2023-04-14T00:34:17.992Z,371.00
2023-04-14T00:35:18.048Z,371.00
2023-04-14T00:36:18.134Z,371.00
2023-04-14T00:37:18.183Z,372.00
2023-04-14T00:38:18.243Z,372.00
2023-04-14T00:39:18.304Z,371.00
2023-04-14T00:40:18.337Z,370.00
2023-04-14T00:41:18.364Z,370.00
2023-04-14T00:42:18.453Z,372.00
2023-04-14T00:43:18.483Z,372.00
2023-04-14T00:44:18.574Z,372.00
2023-04-14T00:45:18.634Z,373.00
2023-04-14T00:46:18.707Z,374.00
2023-04-14T00:47:18.764Z,372.00
2023-04-14T00:48:18.801Z,372.00
2023-04-14T00:49:18.890Z,372.00
2023-04-14T00:50:18.931Z,375.00
2023-04-14T00:51:18.997Z,376.00
2023-04-14T00:52:19.056Z,377.00
2023-04-14T00:53:19.124Z,379.00
2023-04-14T00:54:19.178Z,381.00
2023-04-14T00:55:19.198Z,383.00
2023-04-14T00:56:19.253Z,381.00
2023-04-14T00:57:19.346Z,380.00
2023-04-14T00:58:19.376Z,379.00
2023-04-14T00:59:19.471Z,377.00
2023-04-14T01:00:19.500Z,376.00
2023-04-14T01:01:19.604Z,380.00
2023-04-14T01:02:19.774Z,379.00
2023-04-14T01:03:19.811Z,380.00
2023-04-14T01:04:19.838Z,380.00
2023-04-14T01:05:19.977Z,377.00
2023-04-14T01:06:19.891Z,375.00
2023-04-14T01:07:19.945Z,374.00
2023-04-14T01:08:20.018Z,372.00
2023-04-14T01:09:20.074Z,373.00
2023-04-14T01:10:20.125Z,373.00
2023-04-14T01:11:20.191Z,372.00
2023-04-14T01:12:20.234Z,373.00
2023-04-14T01:13:20.309Z,374.00
2023-04-14T01:14:20.358Z,374.00
2023-04-14T01:15:20.428Z,378.00
2023-04-14T01:16:20.463Z,381.00
2023-04-14T01:17:20.562Z,381.00
2023-04-14T01:18:20.585Z,380.00
2023-04-14T01:19:20.656Z,378.00
2023-04-14T01:20:20.708Z,378.00
2023-04-14T01:21:20.743Z,377.00
2023-04-14T01:22:20.829Z,377.00
2023-04-14T01:23:20.886Z,378.00
2023-04-14T01:24:20.938Z,376.00
2023-04-14T01:25:20.980Z,376.00
2023-04-14T01:26:21.048Z,377.00
2023-04-14T01:27:21.084Z,377.00
2023-04-14T01:28:21.150Z,378.00
2023-04-14T01:29:21.226Z,378.00
2023-04-14T01:30:21.291Z,377.00
2023-04-14T01:31:21.397Z,377.00
2023-04-14T01:32:21.400Z,378.00
2023-04-14T01:33:21.422Z,378.00
2023-04-14T01:34:21.509Z,377.00
2023-04-14T01:35:21.600Z,376.00
2023-04-14T01:36:21.608Z,374.00
2023-04-14T01:37:21.697Z,372.00
2023-04-14T01:38:21.801Z,370.00
2023-04-14T01:39:21.802Z,368.00
2023-04-14T01:40:21.894Z,367.00
2023-04-14T01:41:21.923Z,367.00
2023-04-14T01:42:22.016Z,367.00
2023-04-14T01:43:22.065Z,367.00
2023-04-14T01:44:22.114Z,366.00
2023-04-14T01:45:22.171Z,367.00
2023-04-14T01:46:22.282Z,366.00
2023-04-14T01:47:22.352Z,365.00
2023-04-14T01:48:22.383Z,367.00
2023-04-14T01:49:22.442Z,368.00
2023-04-14T01:50:22.460Z,367.00
2023-04-14T01:51:22.531Z,366.00
2023-04-14T01:52:22.559Z,365.00
2023-04-14T01:53:22.626Z,367.00
2023-04-14T01:54:22.693Z,367.00
2023-04-14T01:55:22.737Z,366.00
2023-04-14T01:56:22.800Z,366.00
2023-04-14T01:57:23.029Z,366.00
2023-04-14T01:58:22.949Z,369.00
2023-04-14T01:59:23.108Z,371.00
2023-04-14T02:00:23.029Z,369.00
2023-04-14T02:01:23.135Z,369.00
2023-04-14T02:02:23.272Z,368.00
2023-04-14T02:03:23.398Z,369.00
2023-04-14T02:04:23.383Z,370.00
2023-04-14T02:05:23.338Z,369.00
2023-04-14T02:06:23.416Z,370.00
2023-04-14T02:07:23.517Z,370.00
2023-04-14T02:08:23.533Z,370.00
2023-04-14T02:09:23.621Z,368.00
2023-04-14T02:10:23.691Z,370.00
2023-04-14T02:11:23.712Z,371.00
2023-04-14T02:12:23.764Z,372.00
2023-04-14T02:13:23.856Z,369.00
2023-04-14T02:14:23.885Z,369.00
2023-04-14T02:15:23.892Z,368.00
2023-04-14T02:16:24.021Z,368.00
2023-04-14T02:17:24.074Z,369.00
2023-04-14T02:18:24.104Z,369.00
2023-04-14T02:19:24.153Z,368.00
2023-04-14T02:20:24.246Z,367.00
2023-04-14T02:21:24.343Z,368.00
2023-04-14T02:22:24.343Z,368.00
2023-04-14T02:23:24.405Z,368.00
2023-04-14T02:24:24.512Z,370.00
2023-04-14T02:25:24.505Z,370.00
2023-04-14T02:26:24.587Z,372.00
2023-04-14T02:27:24.620Z,373.00
2023-04-14T02:28:24.701Z,375.00
2023-04-14T02:29:24.736Z,375.00
2023-04-14T02:30:24.884Z,375.00
2023-04-14T02:31:24.881Z,373.00
2023-04-14T02:32:24.968Z,372.00
2023-04-14T02:33:25.005Z,372.00
2023-04-14T02:34:25.040Z,370.00
2023-04-14T02:35:25.048Z,372.00
2023-04-14T02:36:25.153Z,373.00
2023-04-14T02:37:25.189Z,374.00
2023-04-14T02:38:25.223Z,373.00
2023-04-14T02:39:25.283Z,373.00
2023-04-14T02:40:25.318Z,373.00
2023-04-14T02:41:25.370Z,372.00
2023-04-14T02:42:25.408Z,373.00
2023-04-14T02:43:25.438Z,372.00
2023-04-14T02:44:25.545Z,370.00
2023-04-14T02:45:25.679Z,371.00
2023-04-14T02:46:25.679Z,373.00
2023-04-14T02:47:25.715Z,370.00
2023-04-14T02:48:25.754Z,371.00
2023-04-14T02:49:25.794Z,373.00
2023-04-14T02:50:25.828Z,374.00
2023-04-14T02:51:25.877Z,375.00
2023-04-14T02:52:25.928Z,375.00
2023-04-14T02:53:26.001Z,376.00
2023-04-14T02:54:26.032Z,376.00
2023-04-14T02:55:26.121Z,376.00
2023-04-14T02:56:26.161Z,374.00
2023-04-14T02:57:26.220Z,375.00
2023-04-14T02:58:26.235Z,376.00
2023-04-14T02:59:26.370Z,374.00
2023-04-14T03:00:26.383Z,372.00
2023-04-14T03:01:26.408Z,371.00
2023-04-14T03:02:26.567Z,370.00
2023-04-14T03:03:26.487Z,369.00
2023-04-14T03:04:26.518Z,368.00
2023-04-14T03:05:26.518Z,369.00
2023-04-14T03:06:26.633Z,371.00
2023-04-14T03:07:26.570Z,370.00
2023-04-14T03:08:26.614Z,371.00
2023-04-14T03:09:26.627Z,368.00
2023-04-14T03:10:26.660Z,366.00
2023-04-14T03:11:26.679Z,365.00
2023-04-14T03:12:26.704Z,365.00
2023-04-14T03:13:26.684Z,367.00
2023-04-14T03:14:26.696Z,367.00
2023-04-14T03:15:26.789Z,369.00
2023-04-14T03:16:26.873Z,369.00
2023-04-14T03:17:26.817Z,368.00
2023-04-14T03:18:26.826Z,369.00
2023-04-14T03:19:26.848Z,371.00
2023-04-14T03:20:26.928Z,372.00
2023-04-14T03:21:26.884Z,371.00
2023-04-14T03:22:26.942Z,370.00
2023-04-14T03:23:27.624Z,370.00
2023-04-14T03:24:26.956Z,368.00
2023-04-14T03:25:26.993Z,367.00
2023-04-14T03:26:27.079Z,365.00
2023-04-14T03:27:27.019Z,366.00
2023-04-14T03:28:27.105Z,368.00
2023-04-14T03:29:27.091Z,370.00
2023-04-14T03:30:27.579Z,371.00
2023-04-14T03:31:27.144Z,372.00
2023-04-14T03:32:27.202Z,373.00
2023-04-14T03:33:27.209Z,372.00
2023-04-14T03:34:27.217Z,373.00
2023-04-14T03:35:27.268Z,373.00
2023-04-14T03:36:27.343Z,374.00
2023-04-14T03:37:27.361Z,373.00
2023-04-14T03:38:27.362Z,372.00
2023-04-14T03:39:27.386Z,372.00
2023-04-14T03:40:27.484Z,372.00
2023-04-14T03:41:27.485Z,370.00
2023-04-14T03:42:27.513Z,370.00
2023-04-14T03:43:27.665Z,369.00
2023-04-14T03:44:27.702Z,368.00
2023-04-14T03:45:27.717Z,368.00
2023-04-14T03:46:27.773Z,366.00
2023-04-14T03:47:27.835Z,366.00
2023-04-14T03:48:27.794Z,366.00
2023-04-14T03:49:27.762Z,369.00
2023-04-14T03:50:27.781Z,372.00
2023-04-14T03:51:27.754Z,373.00
2023-04-14T03:52:27.779Z,373.00
2023-04-14T03:53:27.872Z,372.00
2023-04-14T03:54:27.731Z,371.00
2023-04-14T03:55:27.744Z,373.00
2023-04-14T03:56:27.715Z,372.00
2023-04-14T03:57:27.782Z,367.00
2023-04-14T03:58:27.706Z,369.00
2023-04-14T03:59:27.730Z,370.00
2023-04-14T04:00:27.662Z,367.00
2023-04-14T04:01:27.642Z,367.00
2023-04-14T04:02:27.778Z,365.00
2023-04-14T04:03:27.806Z,366.00
2023-04-14T04:04:27.685Z,366.00
2023-04-14T04:05:27.657Z,368.00
2023-04-14T04:06:27.637Z,368.00
2023-04-14T04:07:27.653Z,368.00
2023-04-14T04:08:27.616Z,368.00
2023-04-14T04:09:27.589Z,369.00
2023-04-14T04:10:27.597Z,368.00
2023-04-14T04:11:27.591Z,369.00
2023-04-14T04:12:27.631Z,368.00
2023-04-14T04:13:27.597Z,367.00
2023-04-14T04:14:27.607Z,369.00
2023-04-14T04:15:27.600Z,370.00
2023-04-14T04:16:27.617Z,370.00
2023-04-14T04:17:27.658Z,372.00
2023-04-14T04:18:27.597Z,372.00
2023-04-14T04:19:27.542Z,374.00
2023-04-14T04:20:27.615Z,377.00
2023-04-14T04:21:27.610Z,377.00
2023-04-14T04:22:27.553Z,376.00
2023-04-14T04:23:27.553Z,376.00
2023-04-14T04:24:27.545Z,376.00
2023-04-14T04:25:27.538Z,376.00
2023-04-14T04:26:27.522Z,378.00
2023-04-14T04:27:28.485Z,381.00
2023-04-14T04:28:27.588Z,383.00
2023-04-14T04:29:27.662Z,384.00
2023-04-14T04:30:27.676Z,384.00
2023-04-14T04:31:27.796Z,386.00
2023-04-14T04:32:27.907Z,386.00
2023-04-14T04:33:27.757Z,385.00
2023-04-14T04:34:27.774Z,384.00
2023-04-14T04:35:27.772Z,381.00
2023-04-14T04:36:27.794Z,379.00
2023-04-14T04:37:27.758Z,381.00
2023-04-14T04:38:27.792Z,378.00
2023-04-14T04:39:27.848Z,375.00
2023-04-14T04:40:27.812Z,374.00
2023-04-14T04:41:27.795Z,373.00
2023-04-14T04:42:27.805Z,374.00
2023-04-14T04:43:27.804Z,376.00
2023-04-14T04:44:27.801Z,376.00
2023-04-14T04:45:27.815Z,377.00
2023-04-14T04:46:27.858Z,379.00
2023-04-14T04:47:27.861Z,380.00
2023-04-14T04:48:27.955Z,380.00
2023-04-14T04:49:27.882Z,379.00
2023-04-14T04:50:27.857Z,377.00
2023-04-14T04:51:27.841Z,377.00
2023-04-14T04:52:27.885Z,377.00
2023-04-14T04:53:27.881Z,374.00
2023-04-14T04:54:27.851Z,375.00
2023-04-14T04:55:27.881Z,373.00
2023-04-14T04:56:27.819Z,375.00
2023-04-14T04:57:27.827Z,375.00
2023-04-14T04:58:27.840Z,377.00
2023-04-14T04:59:27.838Z,376.00
2023-04-14T05:00:27.929Z,376.00
2023-04-14T05:01:27.923Z,376.00
2023-04-14T05:02:27.962Z,375.00
2023-04-14T05:03:27.893Z,375.00
2023-04-14T05:04:27.894Z,373.00
2023-04-14T05:05:27.852Z,374.00
2023-04-14T05:06:27.856Z,373.00
2023-04-14T05:07:27.964Z,374.00
2023-04-14T05:08:27.875Z,374.00
2023-04-14T05:09:27.848Z,373.00
2023-04-14T05:10:27.841Z,374.00
2023-04-14T05:11:27.843Z,376.00
2023-04-14T05:12:27.861Z,375.00
2023-04-14T05:13:27.952Z,376.00
2023-04-14T05:14:27.990Z,379.00
2023-04-14T05:15:28.037Z,380.00
2023-04-14T05:16:28.095Z,379.00
2023-04-14T05:17:28.077Z,379.00
2023-04-14T05:18:28.090Z,379.00
2023-04-14T05:19:28.106Z,377.00
2023-04-14T05:20:28.066Z,377.00
2023-04-14T05:21:28.065Z,375.00
2023-04-14T05:22:28.170Z,375.00
2023-04-14T05:23:28.071Z,378.00
2023-04-14T05:24:28.037Z,379.00
2023-04-14T05:25:28.056Z,379.00
2023-04-14T05:26:48.971Z,377.00
2023-04-14T05:27:29.085Z,377.00
2023-04-14T05:28:28.069Z,378.00
2023-04-14T05:29:28.030Z,376.00
2023-04-14T05:30:28.010Z,373.00
2023-04-14T05:31:28.068Z,377.00
2023-04-14T05:32:29.230Z,384.00
2023-04-14T05:33:28.038Z,411.00
2023-04-14T05:34:28.053Z,414.00
2023-04-14T05:35:28.006Z,414.00
2023-04-14T05:36:28.258Z,419.00
2023-04-14T05:37:28.235Z,437.00
2023-04-14T05:38:28.132Z,451.00
2023-04-14T05:39:28.180Z,463.00
2023-04-14T05:40:28.154Z,472.00
2023-04-14T05:41:28.226Z,477.00
2023-04-14T05:42:28.209Z,497.00
2023-04-14T05:43:29.088Z,530.00
2023-04-14T05:44:28.275Z,545.00
2023-04-14T05:45:28.340Z,568.00
2023-04-14T05:46:28.412Z,616.00
2023-04-14T05:47:28.425Z,640.00
2023-04-14T05:48:28.422Z,659.00
2023-04-14T05:49:28.401Z,668.00
2023-04-14T05:50:28.578Z,679.00
2023-04-14T05:51:28.476Z,689.00
2023-04-14T05:52:28.443Z,701.00
2023-04-14T05:53:28.451Z,709.00
2023-04-14T05:54:28.438Z,719.00
2023-04-14T05:55:28.450Z,731.00
2023-04-14T05:56:28.463Z,737.00
2023-04-14T05:57:28.516Z,746.00
2023-04-14T05:58:28.578Z,753.00
2023-04-14T05:59:28.680Z,763.00
2023-04-14T06:00:28.687Z,781.00
2023-04-14T06:01:28.757Z,783.00
2023-04-14T06:02:29.038Z,789.00
2023-04-14T06:03:29.105Z,796.00
2023-04-14T06:04:28.986Z,811.00
2023-04-14T06:05:29.050Z,815.00
2023-04-14T06:06:29.039Z,819.00
2023-04-14T06:07:29.520Z,826.00
2023-04-14T06:08:29.157Z,832.00
2023-04-14T06:09:29.203Z,836.00
2023-04-14T06:10:30.096Z,837.00
2023-04-14T06:11:29.376Z,841.00
2023-04-14T06:12:29.533Z,843.00
2023-04-14T06:13:32.503Z,847.00
2023-04-14T06:14:29.537Z,849.00
2023-04-14T06:15:29.472Z,852.00
2023-04-14T06:16:29.515Z,855.00
2023-04-14T06:17:29.451Z,856.00
2023-04-14T06:18:29.392Z,856.00
2023-04-14T06:19:29.422Z,860.00
2023-04-14T06:20:31.967Z,861.00
2023-04-14T06:21:29.409Z,863.00
2023-04-14T06:22:29.405Z,867.00
2023-04-14T06:23:29.414Z,873.00
2023-04-14T06:24:29.416Z,877.00
2023-04-14T06:25:29.440Z,885.00
2023-04-14T06:26:29.383Z,889.00
2023-04-14T06:27:29.394Z,891.00
2023-04-14T06:28:29.503Z,892.00
2023-04-14T06:29:29.542Z,895.00
2023-04-14T06:30:29.348Z,897.00
2023-04-14T06:31:29.375Z,902.00
2023-04-14T06:32:29.410Z,902.00
2023-04-14T06:33:29.325Z,907.00
2023-04-14T06:34:29.600Z,916.00
2023-04-14T06:35:33.622Z,917.00
2023-04-14T06:36:29.301Z,920.00
2023-04-14T06:37:29.286Z,921.00
2023-04-14T06:38:29.294Z,921.00
2023-04-14T06:39:30.500Z,922.00
2023-04-14T06:40:30.068Z,926.00
2023-04-14T06:41:29.284Z,927.00
2023-04-14T06:42:29.246Z,934.00
2023-04-14T06:43:29.223Z,951.00
2023-04-14T06:44:29.237Z,962.00
2023-04-14T06:45:29.239Z,968.00
2023-04-14T06:46:29.358Z,980.00
2023-04-14T06:47:29.592Z,973.00
2023-04-14T06:48:29.569Z,967.00
2023-04-14T06:49:29.531Z,962.00
2023-04-14T06:50:29.509Z,958.00
2023-04-14T06:51:29.178Z,954.00
2023-04-14T06:52:29.609Z,952.00
2023-04-14T06:53:30.094Z,947.00
2023-04-14T06:54:29.527Z,941.00
2023-04-14T06:55:30.029Z,940.00
2023-04-14T06:56:29.523Z,934.00
2023-04-14T06:57:29.187Z,936.00
2023-04-14T06:58:29.219Z,935.00
2023-04-14T06:59:30.029Z,932.00
2023-04-14T07:00:29.171Z,934.00
2023-04-14T07:01:29.170Z,931.00
2023-04-14T07:02:29.238Z,931.00
2023-04-14T07:03:29.165Z,933.00
2023-04-14T07:04:29.106Z,936.00
2023-04-14T07:05:29.079Z,938.00
2023-04-14T07:06:29.084Z,934.00
2023-04-14T07:07:29.088Z,933.00
2023-04-14T07:08:29.557Z,930.00
2023-04-14T07:09:29.173Z,930.00
2023-04-14T07:10:29.208Z,931.00
2023-04-14T07:11:29.274Z,922.00
2023-04-14T07:12:29.332Z,887.00
2023-04-14T07:13:29.533Z,866.00
2023-04-14T07:14:29.441Z,850.00
2023-04-14T07:15:29.515Z,835.00
2023-04-14T07:16:29.644Z,823.00
2023-04-14T07:17:29.640Z,810.00
2023-04-14T07:18:29.610Z,793.00
2023-04-14T07:19:29.858Z,780.00
2023-04-14T07:20:29.637Z,766.00
2023-04-14T07:21:29.717Z,757.00
2023-04-14T07:22:29.650Z,755.00
2023-04-14T07:23:29.707Z,746.00
2023-04-14T07:24:29.657Z,743.00
2023-04-14T07:25:29.660Z,736.00
2023-04-14T07:26:30.047Z,732.00
2023-04-14T07:27:29.696Z,731.00
2023-04-14T07:28:29.684Z,732.00
2023-04-14T07:29:29.687Z,734.00
2023-04-14T07:30:29.714Z,733.00
2023-04-14T07:31:29.907Z,735.00
2023-04-14T07:32:29.884Z,841.00
2023-04-14T07:33:29.818Z,828.00
2023-04-14T07:34:29.836Z,762.00
2023-04-14T07:35:29.878Z,631.00
2023-04-14T07:36:29.894Z,586.00
2023-04-14T07:37:29.928Z,548.00
2023-04-14T07:38:29.955Z,536.00
2023-04-14T07:39:29.971Z,528.00
2023-04-14T07:40:29.948Z,576.00
2023-04-14T07:41:30.085Z,606.00
2023-04-14T07:42:30.124Z,617.00
2023-04-14T07:43:30.248Z,625.00
2023-04-14T07:44:30.256Z,626.00
2023-04-14T07:45:30.543Z,621.00
2023-04-14T07:46:30.446Z,577.00
2023-04-14T07:47:30.454Z,551.00
2023-04-14T07:48:30.497Z,545.00
2023-04-14T07:49:31.062Z,547.00
2023-04-14T07:50:31.022Z,546.00
2023-04-14T07:51:30.568Z,540.00
2023-04-14T07:52:30.622Z,534.00
2023-04-14T07:53:30.648Z,525.00
2023-04-14T07:54:30.688Z,527.00
2023-04-14T07:55:30.725Z,531.00
2023-04-14T07:56:30.749Z,526.00
2023-04-14T07:57:30.748Z,529.00
2023-04-14T07:58:30.805Z,499.00
2023-04-14T07:59:30.815Z,493.00
2023-04-14T08:00:31.040Z,488.00
2023-04-14T08:01:30.839Z,483.00
2023-04-14T08:02:30.958Z,501.00
2023-04-14T08:03:31.122Z,526.00
2023-04-14T08:04:31.174Z,566.00
2023-04-14T08:05:31.074Z,588.00
2023-04-14T08:06:31.069Z,593.00
2023-04-14T08:07:31.093Z,600.00
2023-04-14T08:08:31.140Z,631.00
2023-04-14T08:09:31.167Z,637.00
2023-04-14T08:10:31.204Z,640.00
2023-04-14T08:11:31.210Z,652.00
2023-04-14T08:12:31.304Z,659.00
2023-04-14T08:13:31.286Z,663.00
2023-04-14T08:14:31.327Z,656.00
2023-04-14T08:15:31.383Z,656.00
2023-04-14T08:16:31.476Z,654.00
2023-04-14T08:17:31.470Z,655.00
2023-04-14T08:18:31.463Z,653.00
2023-04-14T08:19:31.569Z,652.00
2023-04-14T08:20:31.510Z,626.00
2023-04-14T08:21:31.611Z,564.00
2023-04-14T08:22:31.693Z,554.00
2023-04-14T08:23:31.644Z,552.00
2023-04-14T08:24:32.015Z,548.00
2023-04-14T08:25:31.814Z,547.00
2023-04-14T08:26:32.027Z,561.00
2023-04-14T08:27:32.026Z,563.00
2023-04-14T08:28:32.037Z,555.00
2023-04-14T08:29:32.004Z,538.00
2023-04-14T08:30:31.975Z,510.00
2023-04-14T08:31:32.343Z,506.00
2023-04-14T08:32:32.105Z,500.00
2023-04-14T08:33:32.522Z,498.00
2023-04-14T08:34:32.139Z,498.00
2023-04-14T08:35:37.481Z,505.00
2023-04-14T08:36:33.064Z,509.00
2023-04-14T08:37:32.101Z,511.00
2023-04-14T08:38:32.067Z,654.00
2023-04-14T08:39:32.065Z,526.00
2023-04-14T08:40:32.072Z,526.00
2023-04-14T08:41:32.019Z,510.00
2023-04-14T08:42:32.051Z,499.00
2023-04-14T08:43:32.485Z,511.00
2023-04-14T08:44:32.039Z,552.00
2023-04-14T08:45:32.041Z,557.00
2023-04-14T08:46:32.036Z,568.00
2023-04-14T08:47:32.046Z,581.00
2023-04-14T08:48:32.117Z,592.00
2023-04-14T08:49:31.994Z,596.00
2023-04-14T08:50:32.259Z,601.00
2023-04-14T08:51:32.185Z,608.00
2023-04-14T08:52:32.071Z,613.00
2023-04-14T08:53:32.529Z,618.00
2023-04-14T08:54:32.173Z,624.00
2023-04-14T08:55:32.213Z,629.00
2023-04-14T08:56:32.992Z,634.00
2023-04-14T08:57:32.291Z,641.00
2023-04-14T08:58:33.064Z,645.00
2023-04-14T08:59:32.344Z,644.00
2023-04-14T09:00:32.391Z,646.00
2023-04-14T09:01:35.148Z,649.00
2023-04-14T09:02:32.579Z,650.00
2023-04-14T09:03:32.712Z,652.00
2023-04-14T09:04:32.465Z,655.00
2023-04-14T09:05:32.404Z,660.00
2023-04-14T09:06:32.400Z,663.00
2023-04-14T09:07:32.348Z,666.00
2023-04-14T09:08:32.359Z,667.00
2023-04-14T09:09:32.363Z,670.00
2023-04-14T09:10:32.319Z,670.00
2023-04-14T09:11:32.309Z,673.00
2023-04-14T09:12:32.356Z,676.00
2023-04-14T09:13:32.387Z,675.00
2023-04-14T09:14:32.359Z,673.00
2023-04-14T09:15:32.327Z,675.00
2023-04-14T09:16:32.350Z,676.00
2023-04-14T09:17:32.320Z,677.00
2023-04-14T09:18:34.838Z,679.00
2023-04-14T09:19:32.287Z,679.00
2023-04-14T09:20:37.906Z,683.00
2023-04-14T09:21:54.529Z,686.00
2023-04-14T09:22:33.214Z,687.00
2023-04-14T09:23:32.462Z,688.00
2023-04-14T09:24:32.732Z,693.00
2023-04-14T09:25:32.309Z,695.00
2023-04-14T09:26:32.244Z,694.00
2023-04-14T09:27:32.235Z,694.00
2023-04-14T09:28:32.237Z,692.00
2023-04-14T09:29:32.503Z,693.00
2023-04-14T09:30:32.199Z,694.00
2023-04-14T09:31:32.230Z,691.00
2023-04-14T09:32:33.153Z,691.00
2023-04-14T09:33:46.961Z,697.00
2023-04-14T09:34:32.268Z,700.00
2023-04-14T09:35:32.490Z,702.00
2023-04-14T09:36:32.197Z,703.00
2023-04-14T09:37:32.141Z,704.00
2023-04-14T09:38:32.150Z,705.00
2023-04-14T09:39:32.176Z,702.00
2023-04-14T09:40:32.200Z,701.00
2023-04-14T09:41:32.130Z,704.00
2023-04-14T09:42:32.211Z,705.00
2023-04-14T09:43:32.125Z,703.00
2023-04-14T09:44:32.971Z,702.00
2023-04-14T09:45:32.153Z,699.00
2023-04-14T09:46:32.166Z,697.00
2023-04-14T09:47:32.158Z,695.00
2023-04-14T09:48:32.120Z,694.00
2023-04-14T09:49:32.077Z,696.00
2023-04-14T09:50:32.488Z,699.00
2023-04-14T09:51:32.097Z,701.00
2023-04-14T09:52:32.128Z,704.00
2023-04-14T09:53:32.078Z,718.00
2023-04-14T09:54:32.105Z,719.00
2023-04-14T09:55:32.071Z,723.00
2023-04-14T09:56:32.090Z,729.00
2023-04-14T09:57:32.038Z,727.00
2023-04-14T09:58:32.093Z,723.00
2023-04-14T09:59:32.090Z,721.00
2023-04-14T10:00:32.113Z,721.00
2023-04-14T10:01:32.205Z,721.00
2023-04-14T10:02:32.136Z,721.00
2023-04-14T10:03:33.418Z,716.00
2023-04-14T10:04:31.991Z,714.00
2023-04-14T10:05:34.741Z,714.00
2023-04-14T10:06:31.985Z,711.00
2023-04-14T10:07:31.989Z,708.00
2023-04-14T10:08:31.943Z,704.00
2023-04-14T10:09:31.943Z,705.00
2023-04-14T10:10:32.058Z,709.00
2023-04-14T10:11:31.959Z,715.00
2023-04-14T10:12:31.915Z,719.00
2023-04-14T10:13:31.931Z,719.00
2023-04-14T10:14:31.880Z,717.00
2023-04-14T10:15:32.004Z,712.00
2023-04-14T10:16:32.038Z,712.00
2023-04-14T10:17:33.494Z,709.00
2023-04-14T10:18:31.881Z,708.00
2023-04-14T10:19:31.926Z,708.00
2023-04-14T10:20:31.856Z,704.00
2023-04-14T10:21:31.980Z,702.00
2023-04-14T10:22:31.978Z,702.00
2023-04-14T10:23:31.991Z,700.00
2023-04-14T10:24:32.047Z,698.00
2023-04-14T10:25:32.078Z,695.00
2023-04-14T10:26:32.183Z,696.00
2023-04-14T10:27:32.148Z,695.00
2023-04-14T10:28:34.266Z,692.00
2023-04-14T10:29:32.246Z,689.00
2023-04-14T10:30:32.240Z,687.00
2023-04-14T10:31:32.416Z,687.00
2023-04-14T10:32:32.261Z,686.00
2023-04-14T10:33:32.466Z,688.00
2023-04-14T10:34:32.289Z,692.00
2023-04-14T10:35:32.344Z,692.00
2023-04-14T10:36:32.505Z,696.00
2023-04-14T10:37:32.382Z,699.00
2023-04-14T10:38:32.501Z,699.00
2023-04-14T10:39:32.511Z,705.00
2023-04-14T10:40:32.529Z,706.00
2023-04-14T10:41:32.522Z,706.00
2023-04-14T10:42:32.539Z,710.00
2023-04-14T10:43:32.609Z,717.00
2023-04-14T10:44:32.987Z,720.00
2023-04-14T10:45:32.629Z,719.00
2023-04-14T10:46:32.994Z,716.00
2023-04-14T10:47:32.696Z,716.00
2023-04-14T10:48:32.689Z,716.00
2023-04-14T10:49:32.847Z,713.00
2023-04-14T10:50:32.748Z,717.00
2023-04-14T10:51:32.952Z,722.00
2023-04-14T10:52:32.801Z,723.00
2023-04-14T10:53:32.802Z,726.00
2023-04-14T10:54:32.889Z,727.00
2023-04-14T10:55:34.990Z,734.00
2023-04-14T10:56:33.086Z,734.00
2023-04-14T10:57:32.849Z,736.00
2023-04-14T10:58:32.837Z,785.00
2023-04-14T10:59:32.930Z,746.00
2023-04-14T11:00:32.809Z,736.00
2023-04-14T11:01:33.129Z,731.00
2023-04-14T11:02:33.063Z,856.00
2023-04-14T11:03:33.033Z,768.00
2023-04-14T11:04:32.830Z,761.00
2023-04-14T11:05:32.798Z,882.00
2023-04-14T11:06:32.790Z,760.00
2023-04-14T11:07:32.812Z,1526.00
2023-04-14T11:08:32.816Z,800.00
2023-04-14T11:09:32.781Z,759.00
2023-04-14T11:10:32.794Z,763.00
2023-04-14T11:11:32.752Z,752.00
2023-04-14T11:12:32.809Z,735.00
2023-04-14T11:13:32.936Z,733.00
2023-04-14T11:14:32.756Z,728.00
2023-04-14T11:15:32.760Z,720.00
2023-04-14T11:16:32.752Z,707.00
2023-04-14T11:17:32.806Z,692.00
2023-04-14T11:18:33.004Z,680.00
2023-04-14T11:19:32.913Z,671.00
2023-04-14T11:20:32.688Z,664.00
2023-04-14T11:21:32.966Z,652.00
2023-04-14T11:22:32.700Z,643.00
2023-04-14T11:23:32.708Z,635.00
2023-04-14T11:24:32.668Z,622.00
2023-04-14T11:25:33.460Z,605.00
2023-04-14T11:26:32.651Z,584.00
2023-04-14T11:27:32.651Z,574.00
2023-04-14T11:28:32.637Z,568.00
2023-04-14T11:29:32.640Z,557.00
2023-04-14T11:30:32.647Z,547.00
2023-04-14T11:31:32.659Z,540.00
2023-04-14T11:32:32.641Z,533.00
2023-04-14T11:33:32.591Z,524.00
2023-04-14T11:34:35.455Z,516.00
2023-04-14T11:35:32.574Z,511.00
2023-04-14T11:36:32.581Z,502.00
2023-04-14T11:37:32.598Z,494.00
2023-04-14T11:38:32.557Z,487.00
2023-04-14T11:39:32.565Z,480.00
2023-04-14T11:40:32.613Z,474.00
2023-04-14T11:41:32.593Z,471.00
2023-04-14T11:42:32.522Z,466.00
2023-04-14T11:43:32.547Z,467.00
2023-04-14T11:44:32.489Z,463.00
2023-04-14T11:45:32.496Z,458.00
2023-04-14T11:46:32.643Z,455.00
2023-04-14T11:47:32.514Z,452.00
2023-04-14T11:48:32.524Z,451.00
2023-04-14T11:49:32.474Z,447.00
2023-04-14T11:50:32.560Z,447.00
2023-04-14T11:51:32.761Z,443.00
2023-04-14T11:52:32.504Z,440.00
2023-04-14T11:53:32.489Z,440.00
2023-04-14T11:54:33.297Z,436.00
2023-04-14T11:55:32.429Z,437.00
2023-04-14T11:56:32.470Z,436.00
2023-04-14T11:57:32.438Z,432.00
2023-04-14T11:58:32.426Z,430.00
2023-04-14T11:59:32.442Z,427.00
2023-04-14T12:00:32.408Z,427.00
2023-04-14T12:01:32.409Z,427.00
2023-04-14T12:02:32.530Z,426.00
2023-04-14T12:03:32.512Z,426.00
2023-04-14T12:04:32.528Z,426.00
2023-04-14T12:05:32.466Z,425.00
2023-04-14T12:06:32.391Z,424.00
2023-04-14T12:07:32.383Z,421.00
2023-04-14T12:08:32.376Z,418.00
2023-04-14T12:09:32.359Z,414.00
2023-04-14T12:10:32.363Z,414.00
2023-04-14T12:11:32.377Z,415.00
2023-04-14T12:12:32.388Z,415.00
2023-04-14T12:13:32.341Z,414.00
2023-04-14T12:14:32.340Z,413.00
2023-04-14T12:15:32.316Z,415.00
2023-04-14T12:16:32.578Z,414.00
2023-04-14T12:17:32.420Z,416.00
2023-04-14T12:18:32.400Z,416.00
2023-04-14T12:19:32.486Z,417.00
2023-04-14T12:20:32.546Z,418.00
2023-04-14T12:21:32.542Z,419.00
2023-04-14T12:22:32.677Z,418.00
2023-04-14T12:23:32.720Z,416.00
2023-04-14T12:24:32.765Z,416.00
2023-04-14T12:25:32.841Z,414.00
2023-04-14T12:26:32.903Z,412.00
2023-04-14T12:27:32.919Z,411.00
2023-04-14T12:28:33.050Z,411.00